NH04 weather

Ciardelli Field Heliport
Milford, New Hampshire, United States

Public forecast

Using degrees Fahrenheit for public forecast. Weather courtesy of forecast.io.

METAR (pilot weather report)

Closest report is Boire Field, 4.8 nm (8.9 km) ESE. Retrieved 2019/09/15 08:25 UTC (17 minutes ago):

KASH 150825Z AUTO 00000KT 1/4SM FG BKN002 14/14 A3012 RMK AO2

TAF (pilot weather forecast)

Closest forecast is Manchester-Boston Regional Airport, 11.1 nm (20.5 km) NE. Retrieved 2019/09/15 06:24 UTC (2 hours ago):

TAF KMHT 150521Z 1506/1606 VRB03KT 2SM BR OVC002 FM151100 28009KT P6SM FEW040 FM152300 31003KT P6SM BKN100